Terminal Aerodrome Forecast
Issued by NWS St Louis, MO

Current Version | Previous Version | Text Only | Print | Product List | Glossary On
Versions: 1 2 3 4 5 6 7 8 9 10 11 12 13 14 15 16 17 18
112
FTUS43 KLSX 251720
TAFSTL
TAF
KSTL 251720Z 2518/2624 16015G25KT P6SM SCT250
     FM260100 17011KT P6SM SCT250
     FM260800 17007KT P6SM VCSH BKN100
     FM261600 20009KT P6SM SHRA VCTS BKN025CB=

USA.gov is the U.S. government's official web portal to all federal, state and local government web resources and services.